Data for 09/26/2005

Time Sea-Level Adjusted Pressure Absolute Pressure Temperature Relative Humidity Dew Point   
(mb) (inHg) (mb) (inHg) (C) (F) (%) (C) (F)
00:05 1024 30.24 853 25.19 6.6 43.9 65 0.6 33
00:10 1024 30.24 853 25.19 6.5 43.6 66 0.6 33.2
00:15 1024 30.24 853 25.19 6.4 43.6 66 0.6 33
00:20 1024 30.24 853 25.19 6.4 43.5 67 0.8 33.4
00:25 1024 30.24 853 25.19 6.2 43.2 66 0.3 32.5
00:30 1024 30.24 853 25.19 6.2 43.2 64 0 32
00:35 1024 30.24 853 25.19 6.4 43.5 64 0.1 32.2
00:40 1024 30.24 853 25.19 6.1 43 67 0.4 32.7
00:45 1024 30.24 853 25.19 5.9 42.7 65 -0.2 31.6
00:50 1024 30.24 853 25.19 6.3 43.4 68 0.8 33.4
00:55 1024 30.24 853 25.19 5.7 42.3 69 0.4 32.7
01:00 1024 30.24 853 25.19 5.4 41.7 71 0.5 32.9
01:05 1024 30.24 853 25.19 5.1 41.1 73 0.6 33.2
01:10 1024 30.24 853 25.19 5.1 41.2 73 0.7 33.2
01:15 1024 30.24 853 25.19 4.8 40.6 74 0.6 33.1
01:20 1024 30.24 853 25.19 4.5 40.2 75 0.5 32.9
01:25 1024 30.24 853 25.19 4.6 40.3 75 0.6 33
01:30 1024 30.24 853 25.19 4.9 40.7 72 0.2 32.4
01:35 1024 30.24 853 25.19 5.2 41.4 71 0.3 32.6
01:40 1024 30.24 853 25.19 5.3 41.6 70 0.3 32.6
01:45 1024 30.24 853 25.19 5.2 41.3 70 0.1 32.2
01:50 1024 30.24 854 25.22 5.4 41.7 70 0.3 32.6
01:55 1024 30.24 854 25.22 5.5 41.9 69 0.2 32.4
02:00 1024 30.24 854 25.22 5.5 41.9 69 0.4 32.7
02:05 1024 30.24 854 25.22 5.4 41.6 70 0.3 32.5
02:10 1024 30.24 854 25.22 5.2 41.4 71 0.3 32.6
02:15 1024 30.24 854 25.22 5.1 41.2 71 0.3 32.5
02:20 1024 30.24 854 25.22 5.2 41.3 71 0.4 32.8
02:25 1024 30.24 854 25.22 5.1 41.1 71 0.3 32.6
02:30 1024 30.24 854 25.22 5 41.1 72 0.3 32.6
02:35 1024 30.24 854 25.22 4.8 40.7 72 0.3 32.5
02:40 1024 30.24 854 25.22 4.7 40.4 73 0.2 32.4
02:45 1024 30.24 854 25.22 4.6 40.2 74 0.2 32.4
02:50 1024 30.24 854 25.22 4.4 40 74 0.3 32.5
02:55 1024 30.24 854 25.22 4.3 39.7 76 0.3 32.6
03:00 1024 30.24 854 25.22 4.2 39.5 76 0.2 32.4
03:05 1024 30.24 854 25.22 4.4 39.9 74 0.2 32.3
03:10 1024 30.24 854 25.22 4.5 40.2 74 0.3 32.6
03:15 1024 30.24 854 25.22 4.2 39.6 76 0.3 32.5
03:20 1024 30.24 854 25.22 4.3 39.7 74 0.1 32.1
03:25 1024 30.24 854 25.22 4.5 40.1 72 -0 31.9
03:30 1024 30.24 854 25.22 4.7 40.5 71 -0 31.9
03:35 1024 30.24 854 25.22 4.8 40.7 71 0 32
03:40 1024 30.24 854 25.22 4.6 40.3 72 0 32
03:45 1024 30.24 854 25.22 4.4 40 73 -0 32
03:50 1024 30.24 854 25.22 4.4 39.9 74 0.1 32.2
03:55 1024 30.24 854 25.22 4 39.3 75 0.1 32.2
04:00 1024 30.24 854 25.22 3.8 38.9 76 0 32
04:05 1024 30.24 854 25.22 3.8 38.8 76 0 32
04:10 1024 30.24 854 25.22 4 39.1 75 -0 31.9
04:15 1024 30.24 854 25.22 4.2 39.6 74 0 32
04:20 1024 30.24 854 25.22 4.4 39.9 73 0 32.1
04:25 1024 30.24 854 25.22 4.4 39.9 73 -0 31.9
04:30 1024 30.24 854 25.22 4.5 40 74 0.2 32.3
04:35 1024 30.24 854 25.22 3.7 38.7 77 0 32
04:40 1024 30.24 854 25.22 3.6 38.5 76 -0.1 31.7
04:45 1024 30.24 854 25.22 3.6 38.5 76 -0.2 31.7
04:50 1024 30.24 854 25.22 3.7 38.7 76 -0.1 31.9
04:55 1024 30.24 854 25.22 3.5 38.3 76 -0.2 31.6
05:00 1024 30.24 854 25.22 3.7 38.6 76 -0.2 31.6
05:05 1024 30.24 853 25.19 3.8 38.8 76 -0.1 31.8
05:10 1024 30.24 854 25.22 3.7 38.6 76 -0.1 31.8
05:15 1024 30.24 853 25.19 3.5 38.3 77 -0.1 31.8
05:20 1024 30.24 853 25.19 3.5 38.2 78 -0.1 31.9
05:25 1024 30.24 854 25.22 3.7 38.6 76 -0.2 31.7
05:30 1024 30.24 853 25.19 4 39.1 75 -0.1 31.8
05:35 1024 30.24 854 25.22 3.9 39 76 0.1 32.2
05:40 1024 30.24 854 25.22 3.6 38.5 77 -0 32
05:45 1024 30.24 854 25.22 3.5 38.2 77 -0.1 31.8
05:50 1024 30.24 854 25.22 3.5 38.3 78 -0 32
05:55 1024 30.24 854 25.22 3.6 38.5 77 -0.1 31.8
06:00 1024 30.24 853 25.19 3.4 38.1 78 -0 31.9
06:05 1024 30.24 853 25.19 3.2 37.7 79 -0.1 31.9
06:10 1024 30.24 853 25.19 3.3 37.9 78 -0.2 31.6
06:15 1024 30.24 853 25.19 3.6 38.4 77 -0.2 31.7
06:20 1024 30.24 853 25.19 3.8 38.8 75 -0.2 31.6
06:25 1024 30.24 853 25.19 4 39.1 74 -0.2 31.7
06:30 1024 30.24 853 25.19 4 39.3 74 -0.1 31.8
06:35 1024 30.24 853 25.19 4.1 39.4 74 -0.1 31.8
06:40 1024 30.24 853 25.19 4.2 39.5 73 -0.2 31.7
06:45 1024 30.24 853 25.19 4.3 39.7 73 -0.1 31.9
06:50 1024 30.24 853 25.19 4.3 39.8 73 -0.1 31.8
06:55 1024 30.24 853 25.19 4.3 39.8 73 -0.1 31.8
07:00 1024 30.24 853 25.19 4.4 39.9 72 -0.1 31.8
07:05 1024 30.24 853 25.19 4.4 39.9 73 -0.1 31.9
07:10 1024 30.24 853 25.19 4.2 39.6 74 -0.1 31.9
07:15 1024 30.24 853 25.19 3.9 39 75 -0.2 31.7
07:20 1024 30.24 853 25.19 3.8 38.9 74 -0.3 31.5
07:25 1024 30.24 853 25.19 3.9 39 74 -0.3 31.4
07:30 1024 30.24 853 25.19 4 39.2 74 -0.3 31.5
07:35 1024 30.24 853 25.19 4.1 39.4 74 -0.2 31.7
07:40 1024 30.24 853 25.19 4 39.2 74 -0.2 31.7
07:45 1024 30.24 853 25.19 4.2 39.6 71 -0.6 31
07:50 1024 30.24 853 25.19 4.5 40.1 71 -0.3 31.4
07:55 1024 30.24 853 25.19 4.8 40.6 71 -0.1 31.8
08:00 1024 30.24 853 25.19 4.9 40.8 70 -0.2 31.7
08:05 1024 30.24 853 25.19 5 41.1 69 -0.2 31.6
08:10 1024 30.24 853 25.19 5.4 41.7 68 -0.1 31.9
08:15 1024 30.24 853 25.19 5.6 42.2 68 0.1 32.2
08:20 1024 30.24 853 25.19 5.9 42.7 66 0.1 32.2
08:25 1024 30.24 853 25.19 6.1 43 67 0.4 32.7
08:30 1024 30.24 853 25.19 6.4 43.6 65 0.3 32.6
08:35 1024 30.24 853 25.19 6.7 44.1 64 0.4 32.7
08:40 1024 30.24 853 25.19 6.3 43.3 65 0.2 32.4
08:45 1024 30.24 853 25.19 6.1 43 67 0.5 32.8
08:50 1024 30.24 853 25.19 6.2 43.1 67 0.5 32.9
08:55 1024 30.24 853 25.19 6.3 43.4 66 0.4 32.8
09:00 1024 30.24 853 25.19 6.8 44.3 65 0.7 33.3
09:05 1024 30.24 853 25.19 7.4 45.3 63 0.8 33.4
09:10 1024 30.24 853 25.19 7.9 46.1 61 0.9 33.7
09:15 1024 30.24 853 25.19 8.5 47.4 57 0.5 32.9
09:20 1024 30.24 853 25.19 9 48.3 55 0.6 33.1
09:25 1024 30.24 853 25.19 9.2 48.5 57 1.1 34
09:30 1024 30.24 853 25.19 10 50 54 1.2 34.1
09:35 1024 30.24 853 25.19 10.4 50.8 53 1.3 34.3
09:40 1024 30.24 853 25.19 10.5 51 52 1.2 34.2
09:45 1024 30.24 853 25.19 10.8 51.5 49 0.7 33.3
09:50 1024 30.24 853 25.19 11.8 53.2 48 1.3 34.3
09:55 1023 30.21 853 25.19 12.1 53.8 47 1.1 34
10:00 1024 30.24 853 25.19 11.8 53.2 48 1.2 34.2
10:05 1024 30.24 853 25.19 11.9 53.3 48 1.2 34.1
10:10 1023 30.21 853 25.19 12.4 54.3 46 1.1 33.9
10:15 1023 30.21 853 25.19 12.6 54.6 44 0.8 33.5
10:20 1023 30.21 853 25.19 12.8 55 43 0.6 33.2
10:25 1023 30.21 853 25.19 12.9 55.1 44 0.9 33.6
10:30 1023 30.21 853 25.19 13.1 55.7 44 1.1 34
10:35 1023 30.21 852 25.16 13.3 55.9 44 1.4 34.6
10:40 1023 30.21 852 25.16 13.9 57.1 41 1 33.8
10:45 1023 30.21 852 25.16 14.2 57.5 42 1.5 34.7
10:50 1023 30.21 852 25.16 14.4 57.8 42 1.8 35.2
10:55 1023 30.21 852 25.16 14.4 57.9 42 1.8 35.3
11:00 1023 30.21 852 25.16 14.2 57.5 43 1.7 35.1
11:05 1023 30.21 852 25.16 13.9 57 42 1.4 34.5
11:10 1023 30.21 852 25.16 13.4 56.2 43 1.3 34.4
11:15 1023 30.21 852 25.16 14.3 57.7 40 1 33.8
11:20 1023 30.21 852 25.16 15.1 59.2 41 2 35.5
11:25 1023 30.21 852 25.16 15.2 59.4 40 1.7 35.1
11:30 1023 30.21 852 25.16 15.1 59.2 39 1.5 34.8
11:35 1023 30.21 852 25.16 14.7 58.5 41 1.8 35.2
11:40 1023 30.21 852 25.16 14.2 57.6 43 1.8 35.2
11:45 1023 30.21 852 25.16 14.8 58.6 41 1.6 34.9
11:50 1022 30.18 852 25.16 15.8 60.4 38 1.8 35.2
11:55 1022 30.18 852 25.16 16.4 61.5 38 2.3 36.2
12:00 1022 30.18 851 25.13 16.7 62 37 1.9 35.4
12:05 1022 30.18 851 25.13 16.7 62.1 37 2.1 35.8
12:10 1022 30.18 851 25.13 16.6 61.9 37 1.9 35.4
12:15 1022 30.18 851 25.13 17.3 63.2 33 1.2 34.2
12:20 1022 30.18 851 25.13 17 62.6 33 0.9 33.6
12:25 1022 30.18 851 25.13 17.2 62.9 33 0.8 33.4
12:30 1022 30.18 851 25.13 17.1 62.7 31 -0 32
12:35 1022 30.18 851 25.13 17.5 63.5 31 0.5 32.9
12:40 1022 30.18 851 25.13 17.6 63.6 32 0.8 33.4
12:45 1022 30.18 851 25.13 17.1 62.7 31 0 32.1
12:50 1021 30.15 851 25.13 17.2 62.9 30 -0.5 31.1
12:55 1021 30.15 851 25.13 16.9 62.4 30 -0.6 31
13:00 1021 30.15 851 25.13 17.9 64.3 31 0.5 32.9
13:05 1021 30.15 850 25.1 18.9 65.9 25 -1.4 29.5
13:10 1021 30.15 850 25.1 18.7 65.6 25 -1.6 29.1
13:15 1021 30.15 850 25.1 18.7 65.7 29 0.2 32.4
13:20 1021 30.15 850 25.1 19.2 66.5 27 -0.2 31.6
13:25 1021 30.15 850 25.1 18.9 66 28 0.2 32.3
13:30 1021 30.15 850 25.1 19.2 66.6 28 0.4 32.8
13:35 1021 30.15 850 25.1 19.2 66.6 30 1.2 34.1
13:40 1021 30.15 850 25.1 19.9 67.8 28 0.8 33.4
13:45 1020 30.12 850 25.1 20.4 68.6 25 0 32.1
13:50 1020 30.12 850 25.1 20.6 69.1 28 1.8 35.2
13:55 1020 30.12 849 25.07 20.6 69 27 0.9 33.6
14:00 1020 30.12 849 25.07 20.6 69.1 28 1.9 35.3
14:05 1020 30.12 849 25.07 20.7 69.3 29 2.4 36.4
14:10 1020 30.12 849 25.07 20.6 69.1 28 1.7 35.1
14:15 1020 30.12 849 25.07 20.7 69.3 28 1.8 35.2
14:20 1020 30.12 849 25.07 20.6 69.1 30 2.4 36.3
14:25 1020 30.12 849 25.07 21 69.7 27 1.7 35
14:30 1020 30.12 849 25.07 21 69.8 27 1.5 34.8
14:35 1020 30.12 849 25.07 20.8 69.4 29 2.4 36.4
14:40 1020 30.12 849 25.07 21.4 70.6 29 2.7 36.9
14:45 1020 30.12 849 25.07 21.6 70.8 27 2 35.7
14:50 1020 30.12 849 25.07 21.4 70.5 28 2.2 36
14:55 1020 30.12 849 25.07 21.1 70 27 1.6 34.9
15:00 1020 30.12 849 25.07 21.1 69.9 26 1.1 34
15:05 1020 30.12 849 25.07 21.5 70.7 26 1.5 34.7
15:10 1020 30.12 849 25.07 21.6 71 26 1.4 34.5
15:15 1019 30.09 849 25.07 21.6 70.9 26 1.7 35.1
15:20 1019 30.09 849 25.07 21.8 71.2 26 1.7 35.1
15:25 1019 30.09 849 25.07 21.9 71.5 26 1.8 35.3
15:30 1019 30.09 849 25.07 21.9 71.5 26 1.5 34.8
15:35 1019 30.09 848 25.04 22.3 72.2 25 1.5 34.8
15:40 1019 30.09 848 25.04 22.3 72.2 25 1.6 34.9
15:45 1019 30.09 848 25.04 22.1 71.8 25 1.3 34.3
15:50 1019 30.09 848 25.04 22.4 72.2 25 1.8 35.3
15:55 1019 30.09 848 25.04 22.8 73 23 1 33.8
16:00 1019 30.09 848 25.04 22.9 73.2 24 1.5 34.8
16:05 1019 30.09 848 25.04 22.5 72.5 24 1.2 34.2
16:10 1019 30.09 848 25.04 21.8 71.2 26 1.4 34.5
16:15 1019 30.09 848 25.04 21.4 70.6 25 0.9 33.7
16:20 1019 30.09 848 25.04 22.2 71.9 24 1.1 34
16:25 1018 30.06 848 25.04 21.8 71.2 26 1.4 34.6
16:30 1018 30.06 848 25.04 22 71.5 24 0.8 33.5
16:35 1018 30.06 848 25.04 22.2 72 24 0.6 33.1
16:40 1018 30.06 848 25.04 22.5 72.5 22 -0.2 31.6
16:45 1018 30.06 847 25.01 22.9 73.2 23 0.8 33.4
16:50 1018 30.06 848 25.04 22.4 72.3 22 0.1 32.2
16:55 1018 30.06 847 25.01 22.1 71.8 25 1.5 34.7
17:00 1018 30.06 847 25.01 23 73.4 21 -0.5 31.2
17:05 1018 30.06 847 25.01 23.2 73.7 22 0.2 32.4
17:10 1018 30.06 847 25.01 23.3 73.9 21 0.2 32.3
17:15 1018 30.06 847 25.01 22.5 72.5 22 0.1 32.3
17:20 1018 30.06 847 25.01 22.2 71.9 22 -0.1 31.7
17:25 1018 30.06 847 25.01 22 71.6 23 0 32.1
17:30 1018 30.06 847 25.01 21.9 71.3 23 -0.2 31.7
17:35 1018 30.06 847 25.01 21.9 71.5 22 -0.7 30.7
17:40 1018 30.06 847 25.01 22 71.5 22 -0.3 31.5
17:45 1018 30.06 847 25.01 21.9 71.5 22 -0.7 30.7
17:50 1018 30.06 847 25.01 22.1 71.7 21 -1.1 30
17:55 1018 30.06 847 25.01 22.2 71.9 20 -1.7 29
18:00 1018 30.06 847 25.01 22.6 72.6 20 -1.3 29.7
18:05 1018 30.06 847 25.01 22.8 73.1 21 -0.6 30.9
18:10 1018 30.06 847 25.01 22.3 72.1 22 0 32.1
18:15 1018 30.06 847 25.01 22 71.6 22 -0.4 31.3
18:20 1018 30.06 847 25.01 21.9 71.4 22 -0.4 31.2
18:25 1018 30.06 847 25.01 21.4 70.5 24 -0 31.9
18:30 1017 30.03 847 25.01 21 69.7 25 0.5 33
18:35 1017 30.03 847 25.01 20.8 69.4 25 0.3 32.6
18:40 1017 30.03 847 25.01 20.7 69.2 25 0.2 32.4
18:45 1017 30.03 847 25.01 20.2 68.4 37 5.2 41.4
18:50 1017 30.03 847 25.01 18.6 65.4 37 3.7 38.6
18:55 1017 30.03 847 25.01 17.9 64.3 40 4.3 39.8
19:00 1017 30.03 847 25.01 17.5 63.6 41 4.2 39.6
19:05 1017 30.03 847 25.01 17 62.5 43 4.3 39.7
19:10 1017 30.03 847 25.01 16.5 61.7 44 4.2 39.6
19:15 1017 30.03 847 25.01 15.9 60.6 43 3.4 38.1
19:20 1017 30.03 847 25.01 15.9 60.6 45 4.1 39.5
19:25 1017 30.03 847 25.01 15.5 60 46 4.1 39.4
19:30 1018 30.06 847 25.01 15.4 59.7 46 4 39.2
19:35 1018 30.06 847 25.01 15.2 59.4 47 4 39.1
19:40 1018 30.06 847 25.01 15.3 59.5 45 3.5 38.3
19:45 1018 30.06 847 25.01 15.9 60.6 41 2.6 36.8
19:50 1018 30.06 847 25.01 15.8 60.4 42 2.9 37.3
19:55 1018 30.06 847 25.01 15.3 59.6 46 3.8 38.9
20:00 1018 30.06 847 25.01 14.5 58.2 51 4.5 40.1
20:05 1018 30.06 847 25.01 14.7 58.5 46 3.2 37.8
20:10 1018 30.06 847 25.01 14.6 58.2 46 3.2 37.8
20:15 1018 30.06 847 25.01 14.6 58.3 42 1.9 35.4
20:20 1018 30.06 847 25.01 14.9 58.8 40 1.5 34.8
20:25 1018 30.06 847 25.01 14.9 58.8 47 3.9 38.9
20:30 1018 30.06 847 25.01 14.5 58 44 2.4 36.4
20:35 1018 30.06 847 25.01 14.1 57.3 46 2.8 37.1
20:40 1018 30.06 847 25.01 13.5 56.3 50 3.3 38
20:45 1018 30.06 847 25.01 13.1 55.5 50 3.1 37.6
20:50 1018 30.06 847 25.01 13 55.3 49 2.5 36.6
20:55 1018 30.06 847 25.01 13.5 56.2 43 1.1 34
21:00 1018 30.06 847 25.01 14.3 57.8 39 0.7 33.2
21:05 1018 30.06 847 25.01 15.1 59.1 32 -1.2 29.8
21:10 1018 30.06 847 25.01 15.6 60.1 30 -1.6 29.1
21:15 1018 30.06 847 25.01 15.7 60.2 33 -0.6 30.9
21:20 1018 30.06 847 25.01 15.6 60 32 -1.1 30
21:25 1018 30.06 847 25.01 15.2 59.4 34 -0.3 31.4
21:30 1018 30.06 847 25.01 15.1 59.2 33 -1 30.2
21:35 1018 30.06 847 25.01 14.9 58.8 33 -1 30.2
21:40 1018 30.06 847 25.01 14.9 58.8 36 0 32.1
21:45 1018 30.06 847 25.01 14.8 58.6 32 -1.8 28.7
21:50 1018 30.06 847 25.01 14.7 58.4 33 -1.3 29.7
21:55 1018 30.06 847 25.01 14.7 58.4 32 -1.8 28.7
22:00 1018 30.06 847 25.01 14.7 58.5 33 -1.1 30
22:05 1018 30.06 847 25.01 14.9 58.8 32 -1.7 29
22:10 1018 30.06 847 25.01 14.6 58.3 31 -2.4 27.8
22:15 1018 30.06 847 25.01 14.7 58.4 31 -2.2 28.1
22:20 1018 30.06 847 25.01 14.8 58.6 29 -3.1 26.4
22:25 1018 30.06 847 25.01 15.4 59.7 39 1.4 34.6
22:30 1018 30.06 847 25.01 15.7 60.2 27 -3 26.6
22:35 1018 30.06 847 25.01 15.6 60.1 27 -3.2 26.3
22:40 1018 30.06 847 25.01 15.6 60 27 -3.3 26.1
22:45 1018 30.06 847 25.01 15.7 60.2 32 -1 30.3
22:50 1018 30.06 847 25.01 15.5 59.9 27 -3.4 25.8
22:55 1018 30.06 847 25.01 15.5 59.9 27 -3.4 25.9
23:00 1018 30.06 847 25.01 15.5 59.8 27 -3.3 26
23:05 1018 30.06 847 25.01 15.2 59.3 31 -1.6 29.1
23:10 1018 30.06 847 25.01 14.9 58.8 30 -2.3 27.8
23:15 1018 30.06 847 25.01 14.1 57.4 32 -2.1 28.2
23:20 1018 30.06 847 25.01 13.5 56.4 34 -1.8 28.8
23:25 1018 30.06 847 25.01 13.3 55.9 35 -1.9 28.5
23:30 1018 30.06 847 25.01 13.5 56.4 33 -2.5 27.5
23:35 1018 30.06 847 25.01 13.5 56.2 35 -1.6 29.1
23:40 1018 30.06 847 25.01 13.1 55.7 35 -2.1 28.3
23:45 1018 30.06 847 25.01 13 55.4 35 -1.9 28.7
23:50 1018 30.06 847 25.01 12.9 55.1 36 -1.6 29.1
23:55 1018 30.06 847 25.01 12.8 55.1 34 -2.5 27.6
24:00 1018 30.06 847 25.01 13.2 55.7 33 -2.6 27.4